sensor_id;sensor_type;location;lat;lon;timestamp;temperature;humidity
73509;SHT30;61750;55.036;73.312;2022-12-15T00:02:42;-25.07;73.76
73509;SHT30;61750;55.036;73.312;2022-12-15T00:09:45;-25.11;73.38
73509;SHT30;61750;55.036;73.312;2022-12-15T00:12:29;-25.18;73.48
73509;SHT30;61750;55.036;73.312;2022-12-15T00:19:32;-25.08;74.09
73509;SHT30;61750;55.036;73.312;2022-12-15T00:22:17;-24.98;74.51
73509;SHT30;61750;55.036;73.312;2022-12-15T00:29:20;-25.06;73.98
73509;SHT30;61750;55.036;73.312;2022-12-15T00:32:10;-25.03;73.94
73509;SHT30;61750;55.036;73.312;2022-12-15T00:35:04;-25.01;74.14
73509;SHT30;61750;55.036;73.312;2022-12-15T00:37:48;-25.07;73.98
73509;SHT30;61750;55.036;73.312;2022-12-15T00:40:47;-25.06;74.27
73509;SHT30;61750;55.036;73.312;2022-12-15T00:43:15;-25.10;74.27
73509;SHT30;61750;55.036;73.312;2022-12-15T00:45:47;-25.06;74.30
73509;SHT30;61750;55.036;73.312;2022-12-15T00:48:32;-25.10;74.19
73509;SHT30;61750;55.036;73.312;2022-12-15T00:50:58;-25.08;74.16
73509;SHT30;61750;55.036;73.312;2022-12-15T00:53:29;-25.03;74.31
73509;SHT30;61750;55.036;73.312;2022-12-15T00:56:14;-25.03;74.24
73509;SHT30;61750;55.036;73.312;2022-12-15T00:59:04;-25.06;74.06
73509;SHT30;61750;55.036;73.312;2022-12-15T01:01:49;-25.06;74.10
73509;SHT30;61750;55.036;73.312;2022-12-15T01:04:37;-25.10;74.14
73509;SHT30;61750;55.036;73.312;2022-12-15T01:07:22;-25.04;74.20
73509;SHT30;61750;55.036;73.312;2022-12-15T01:10:47;-24.94;74.52
73509;SHT30;61750;55.036;73.312;2022-12-15T01:13:32;-24.88;74.69
73509;SHT30;61750;55.036;73.312;2022-12-15T01:16:22;-24.86;74.44
73509;SHT30;61750;55.036;73.312;2022-12-15T01:19:12;-24.90;74.44
73509;SHT30;61750;55.036;73.312;2022-12-15T01:21:57;-24.86;74.27
73509;SHT30;61750;55.036;73.312;2022-12-15T01:24:33;-24.90;74.11
73509;SHT30;61750;55.036;73.312;2022-12-15T01:27:00;-24.84;74.37
73509;SHT30;61750;55.036;73.312;2022-12-15T01:29:26;-24.77;74.46
73509;SHT30;61750;55.036;73.312;2022-12-15T01:32:02;-24.83;74.12
73509;SHT30;61750;55.036;73.312;2022-12-15T01:34:28;-24.86;73.80
73509;SHT30;61750;55.036;73.312;2022-12-15T01:36:54;-24.90;73.71
73509;SHT30;61750;55.036;73.312;2022-12-15T01:43:38;-24.86;74.07
73509;SHT30;61750;55.036;73.312;2022-12-15T01:48:45;-24.90;74.10
73509;SHT30;61750;55.036;73.312;2022-12-15T01:51:21;-24.91;73.96
73509;SHT30;61750;55.036;73.312;2022-12-15T01:53:57;-24.91;73.96
73509;SHT30;61750;55.036;73.312;2022-12-15T01:56:31;-24.88;74.11
73509;SHT30;61750;55.036;73.312;2022-12-15T01:59:03;-24.84;74.49
73509;SHT30;61750;55.036;73.312;2022-12-15T02:01:39;-24.83;74.32
73509;SHT30;61750;55.036;73.312;2022-12-15T02:04:09;-24.76;74.50
73509;SHT30;61750;55.036;73.312;2022-12-15T02:06:37;-24.69;74.59
73509;SHT30;61750;55.036;73.312;2022-12-15T02:09:14;-24.63;74.59
73509;SHT30;61750;55.036;73.312;2022-12-15T02:11:49;-24.57;74.46
73509;SHT30;61750;55.036;73.312;2022-12-15T02:15:05;-24.57;74.39
73509;SHT30;61750;55.036;73.312;2022-12-15T02:22:18;-24.56;74.14
73509;SHT30;61750;55.036;73.312;2022-12-15T02:32:09;-24.62;74.25
73509;SHT30;61750;55.036;73.312;2022-12-15T02:34:42;-24.57;74.29
73509;SHT30;61750;55.036;73.312;2022-12-15T02:37:11;-24.57;74.36
73509;SHT30;61750;55.036;73.312;2022-12-15T02:39:39;-24.63;74.22
73509;SHT30;61750;55.036;73.312;2022-12-15T02:42:05;-24.65;74.25
73509;SHT30;61750;55.036;73.312;2022-12-15T02:44:33;-24.56;74.56
73509;SHT30;61750;55.036;73.312;2022-12-15T02:57:23;-24.77;74.10
73509;SHT30;61750;55.036;73.312;2022-12-15T03:02:20;-24.76;74.63
73509;SHT30;61750;55.036;73.312;2022-12-15T03:04:47;-24.73;74.80
73509;SHT30;61750;55.036;73.312;2022-12-15T03:07:13;-24.69;74.88
73509;SHT30;61750;55.036;73.312;2022-12-15T03:09:39;-24.70;74.49
73509;SHT30;61750;55.036;73.312;2022-12-15T03:12:05;-24.88;74.05
73509;SHT30;61750;55.036;73.312;2022-12-15T03:14:31;-24.73;74.54
73509;SHT30;61750;55.036;73.312;2022-12-15T03:16:57;-24.66;75.10
73509;SHT30;61750;55.036;73.312;2022-12-15T03:19:23;-24.57;75.33
73509;SHT30;61750;55.036;73.312;2022-12-15T03:21:50;-24.52;75.25
73509;SHT30;61750;55.036;73.312;2022-12-15T03:24:17;-24.45;75.28
73509;SHT30;61750;55.036;73.312;2022-12-15T03:26:43;-24.45;75.10
73509;SHT30;61750;55.036;73.312;2022-12-15T03:29:09;-24.32;75.09
73509;SHT30;61750;55.036;73.312;2022-12-15T03:31:34;-24.24;75.28
73509;SHT30;61750;55.036;73.312;2022-12-15T03:34:12;-24.28;74.89
73509;SHT30;61750;55.036;73.312;2022-12-15T03:36:38;-24.22;74.86
73509;SHT30;61750;55.036;73.312;2022-12-15T03:39:04;-24.28;74.54
73509;SHT30;61750;55.036;73.312;2022-12-15T03:41:30;-24.32;74.08
73509;SHT30;61750;55.036;73.312;2022-12-15T03:43:57;-24.29;73.89
73509;SHT30;61750;55.036;73.312;2022-12-15T03:46:23;-24.19;74.20
73509;SHT30;61750;55.036;73.312;2022-12-15T03:48:49;-24.24;74.00
73509;SHT30;61750;55.036;73.312;2022-12-15T03:51:15;-24.15;74.00
73509;SHT30;61750;55.036;73.312;2022-12-15T03:53:41;-24.05;74.22
73509;SHT30;61750;55.036;73.312;2022-12-15T03:56:15;-23.98;74.25
73509;SHT30;61750;55.036;73.312;2022-12-15T03:58:42;-23.96;73.98
73509;SHT30;61750;55.036;73.312;2022-12-15T04:01:22;-23.91;73.86
73509;SHT30;61750;55.036;73.312;2022-12-15T04:03:50;-23.93;73.54
73509;SHT30;61750;55.036;73.312;2022-12-15T04:06:27;-23.83;73.75
73509;SHT30;61750;55.036;73.312;2022-12-15T04:08:56;-23.77;73.79
73509;SHT30;61750;55.036;73.312;2022-12-15T04:11:22;-23.71;73.69
73509;SHT30;61750;55.036;73.312;2022-12-15T04:13:48;-23.76;73.39
73509;SHT30;61750;55.036;73.312;2022-12-15T04:16:14;-23.83;73.15
73509;SHT30;61750;55.036;73.312;2022-12-15T04:18:42;-23.81;73.53
73509;SHT30;61750;55.036;73.312;2022-12-15T04:21:08;-23.71;73.89
73509;SHT30;61750;55.036;73.312;2022-12-15T04:23:34;-23.67;73.91
73509;SHT30;61750;55.036;73.312;2022-12-15T04:26:00;-23.60;74.02
73509;SHT30;61750;55.036;73.312;2022-12-15T04:28:45;-23.52;73.96
73509;SHT30;61750;55.036;73.312;2022-12-15T04:31:32;-23.42;74.02
73509;SHT30;61750;55.036;73.312;2022-12-15T04:34:19;-23.33;73.98
73509;SHT30;61750;55.036;73.312;2022-12-15T04:37:05;-23.19;73.89
73509;SHT30;61750;55.036;73.312;2022-12-15T04:39:57;-23.04;73.80
73509;SHT30;61750;55.036;73.312;2022-12-15T04:42:43;-22.92;73.33
73509;SHT30;61750;55.036;73.312;2022-12-15T04:45:48;-22.75;73.23
73509;SHT30;61750;55.036;73.312;2022-12-15T04:48:32;-22.64;73.05
73509;SHT30;61750;55.036;73.312;2022-12-15T04:51:16;-22.53;72.85
73509;SHT30;61750;55.036;73.312;2022-12-15T04:54:01;-22.36;72.63
73509;SHT30;61750;55.036;73.312;2022-12-15T04:56:45;-22.19;72.56
73509;SHT30;61750;55.036;73.312;2022-12-15T04:59:30;-22.13;71.80
73509;SHT30;61750;55.036;73.312;2022-12-15T05:02:19;-21.99;71.63
73509;SHT30;61750;55.036;73.312;2022-12-15T05:05:04;-21.86;71.19
73509;SHT30;61750;55.036;73.312;2022-12-15T05:07:48;-21.78;70.57
73509;SHT30;61750;55.036;73.312;2022-12-15T05:10:52;-21.74;69.71
73509;SHT30;61750;55.036;73.312;2022-12-15T05:13:42;-21.65;69.69
73509;SHT30;61750;55.036;73.312;2022-12-15T05:16:29;-21.61;69.26
73509;SHT30;61750;55.036;73.312;2022-12-15T05:19:16;-21.43;69.18
73509;SHT30;61750;55.036;73.312;2022-12-15T05:22:14;-21.30;68.70
73509;SHT30;61750;55.036;73.312;2022-12-15T05:24:59;-21.17;68.13
73509;SHT30;61750;55.036;73.312;2022-12-15T05:27:51;-21.06;67.75
73509;SHT30;61750;55.036;73.312;2022-12-15T05:30:50;-20.95;67.32
73509;SHT30;61750;55.036;73.312;2022-12-15T05:33:37;-20.82;66.84
73509;SHT30;61750;55.036;73.312;2022-12-15T05:36:03;-20.79;66.11
73509;SHT30;61750;55.036;73.312;2022-12-15T05:38:40;-20.83;65.60
73509;SHT30;61750;55.036;73.312;2022-12-15T05:41:07;-20.75;65.75
73509;SHT30;61750;55.036;73.312;2022-12-15T05:43:33;-20.72;65.78
73509;SHT30;61750;55.036;73.312;2022-12-15T05:46:10;-20.68;65.63
73509;SHT30;61750;55.036;73.312;2022-12-15T05:49:02;-20.55;65.43
73509;SHT30;61750;55.036;73.312;2022-12-15T05:51:31;-20.51;65.26
73509;SHT30;61750;55.036;73.312;2022-12-15T05:53:57;-20.48;65.06
73509;SHT30;61750;55.036;73.312;2022-12-15T05:59:38;-20.62;64.61
73509;SHT30;61750;55.036;73.312;2022-12-15T06:02:10;-20.47;65.16
73509;SHT30;61750;55.036;73.312;2022-12-15T06:04:36;-20.42;64.64
73509;SHT30;61750;55.036;73.312;2022-12-15T06:07:05;-20.37;64.32
73509;SHT30;61750;55.036;73.312;2022-12-15T06:09:34;-20.28;64.32
73509;SHT30;61750;55.036;73.312;2022-12-15T06:12:02;-20.35;64.12
73509;SHT30;61750;55.036;73.312;2022-12-15T06:14:28;-20.38;64.06
73509;SHT30;61750;55.036;73.312;2022-12-15T06:16:55;-20.41;64.35
73509;SHT30;61750;55.036;73.312;2022-12-15T06:19:25;-20.33;64.66
73509;SHT30;61750;55.036;73.312;2022-12-15T06:21:51;-20.35;64.42
73509;SHT30;61750;55.036;73.312;2022-12-15T06:24:17;-20.27;64.64
73509;SHT30;61750;55.036;73.312;2022-12-15T06:26:53;-20.17;64.61
73509;SHT30;61750;55.036;73.312;2022-12-15T06:29:26;-20.13;64.13
73509;SHT30;61750;55.036;73.312;2022-12-15T06:31:55;-20.13;64.01
73509;SHT30;61750;55.036;73.312;2022-12-15T06:34:31;-20.13;63.94
73509;SHT30;61750;55.036;73.312;2022-12-15T06:36:59;-19.99;64.10
73509;SHT30;61750;55.036;73.312;2022-12-15T06:39:35;-20.09;63.63
73509;SHT30;61750;55.036;73.312;2022-12-15T06:42:02;-20.18;63.88
73509;SHT30;61750;55.036;73.312;2022-12-15T06:44:28;-20.14;64.42
73509;SHT30;61750;55.036;73.312;2022-12-15T06:47:00;-20.03;64.62
73509;SHT30;61750;55.036;73.312;2022-12-15T06:49:27;-20.06;64.19
73509;SHT30;61750;55.036;73.312;2022-12-15T06:51:53;-19.87;64.59
73509;SHT30;61750;55.036;73.312;2022-12-15T06:54:19;-19.70;64.92
73509;SHT30;61750;55.036;73.312;2022-12-15T06:56:48;-19.66;64.31
73509;SHT30;61750;55.036;73.312;2022-12-15T06:59:20;-19.80;64.12
73509;SHT30;61750;55.036;73.312;2022-12-15T07:01:47;-19.85;64.23
73509;SHT30;61750;55.036;73.312;2022-12-15T07:04:23;-19.69;64.74
73509;SHT30;61750;55.036;73.312;2022-12-15T07:06:50;-19.51;65.13
73509;SHT30;61750;55.036;73.312;2022-12-15T07:09:16;-19.35;64.43
73509;SHT30;61750;55.036;73.312;2022-12-15T07:11:42;-19.35;63.38
73509;SHT30;61750;55.036;73.312;2022-12-15T07:14:10;-19.24;63.63
73509;SHT30;61750;55.036;73.312;2022-12-15T07:16:36;-19.18;63.70
73509;SHT30;61750;55.036;73.312;2022-12-15T07:19:07;-19.24;63.63
73509;SHT30;61750;55.036;73.312;2022-12-15T07:21:42;-19.22;63.87
73509;SHT30;61750;55.036;73.312;2022-12-15T07:24:09;-19.11;63.96
73509;SHT30;61750;55.036;73.312;2022-12-15T07:26:39;-19.02;63.27
73509;SHT30;61750;55.036;73.312;2022-12-15T07:29:13;-19.01;63.27
73509;SHT30;61750;55.036;73.312;2022-12-15T07:31:41;-18.88;63.66
73509;SHT30;61750;55.036;73.312;2022-12-15T07:34:07;-18.77;63.30
73509;SHT30;61750;55.036;73.312;2022-12-15T07:36:39;-18.66;63.18
73509;SHT30;61750;55.036;73.312;2022-12-15T07:43:13;-18.46;62.07
73509;SHT30;61750;55.036;73.312;2022-12-15T07:45:51;-18.39;62.11
73509;SHT30;61750;55.036;73.312;2022-12-15T07:48:18;-18.33;61.79
73509;SHT30;61750;55.036;73.312;2022-12-15T07:50:48;-18.18;62.30
73509;SHT30;61750;55.036;73.312;2022-12-15T07:53:16;-18.14;62.10
73509;SHT30;61750;55.036;73.312;2022-12-15T07:55:42;-18.02;62.12
73509;SHT30;61750;55.036;73.312;2022-12-15T07:58:19;-18.00;61.24
73509;SHT30;61750;55.036;73.312;2022-12-15T08:00:50;-17.94;61.57
73509;SHT30;61750;55.036;73.312;2022-12-15T08:03:16;-18.01;61.07
73509;SHT30;61750;55.036;73.312;2022-12-15T08:06:02;-17.95;61.37
73509;SHT30;61750;55.036;73.312;2022-12-15T08:08:28;-18.04;60.62
73509;SHT30;61750;55.036;73.312;2022-12-15T08:10:57;-18.04;61.18
73509;SHT30;61750;55.036;73.312;2022-12-15T08:13:23;-17.98;61.36
73509;SHT30;61750;55.036;73.312;2022-12-15T08:15:52;-17.88;61.38
73509;SHT30;61750;55.036;73.312;2022-12-15T08:18:21;-17.75;61.92
73509;SHT30;61750;55.036;73.312;2022-12-15T08:20:48;-17.69;61.41
73509;SHT30;61750;55.036;73.312;2022-12-15T08:23:14;-17.64;61.30
73509;SHT30;61750;55.036;73.312;2022-12-15T08:25:49;-17.61;60.91
73509;SHT30;61750;55.036;73.312;2022-12-15T08:28:20;-17.49;60.19
73509;SHT30;61750;55.036;73.312;2022-12-15T08:30:50;-17.37;60.21
73509;SHT30;61750;55.036;73.312;2022-12-15T08:33:23;-17.25;59.79
73509;SHT30;61750;55.036;73.312;2022-12-15T08:36:35;-16.92;59.75
73509;SHT30;61750;55.036;73.312;2022-12-15T08:40:00;-16.95;58.83
73509;SHT30;61750;55.036;73.312;2022-12-15T08:42:45;-16.77;59.26
73509;SHT30;61750;55.036;73.312;2022-12-15T08:45:49;-16.55;58.79
73509;SHT30;61750;55.036;73.312;2022-12-15T08:48:33;-16.51;58.99
73509;SHT30;61750;55.036;73.312;2022-12-15T08:51:12;-16.36;58.50
73509;SHT30;61750;55.036;73.312;2022-12-15T08:54:24;-16.54;58.35
73509;SHT30;61750;55.036;73.312;2022-12-15T08:57:22;-16.52;58.57
73509;SHT30;61750;55.036;73.312;2022-12-15T08:59:48;-16.65;59.22
73509;SHT30;61750;55.036;73.312;2022-12-15T09:02:25;-16.78;59.92
73509;SHT30;61750;55.036;73.312;2022-12-15T09:05:01;-16.62;60.17
73509;SHT30;61750;55.036;73.312;2022-12-15T09:07:38;-16.51;59.81
73509;SHT30;61750;55.036;73.312;2022-12-15T09:10:06;-16.47;59.46
73509;SHT30;61750;55.036;73.312;2022-12-15T09:12:43;-16.38;59.39
73509;SHT30;61750;55.036;73.312;2022-12-15T09:15:59;-16.23;58.99
73509;SHT30;61750;55.036;73.312;2022-12-15T09:18:26;-16.16;58.92
73509;SHT30;61750;55.036;73.312;2022-12-15T09:21:12;-16.36;58.65
73509;SHT30;61750;55.036;73.312;2022-12-15T09:23:42;-16.64;59.47
73509;SHT30;61750;55.036;73.312;2022-12-15T09:26:12;-16.77;60.07
73509;SHT30;61750;55.036;73.312;2022-12-15T09:29:01;-17.16;60.76
73509;SHT30;61750;55.036;73.312;2022-12-15T09:31:39;-17.36;62.14
73509;SHT30;61750;55.036;73.312;2022-12-15T09:34:20;-17.73;62.71
73509;SHT30;61750;55.036;73.312;2022-12-15T09:36:52;-18.02;63.44
73509;SHT30;61750;55.036;73.312;2022-12-15T09:39:21;-18.14;64.44
73509;SHT30;61750;55.036;73.312;2022-12-15T09:41:51;-18.35;64.75
73509;SHT30;61750;55.036;73.312;2022-12-15T09:44:21;-18.45;65.71
73509;SHT30;61750;55.036;73.312;2022-12-15T09:49:38;-18.83;66.42
73509;SHT30;61750;55.036;73.312;2022-12-15T09:52:10;-18.79;66.75
73509;SHT30;61750;55.036;73.312;2022-12-15T09:54:50;-18.87;66.61
73509;SHT30;61750;55.036;73.312;2022-12-15T09:57:36;-18.90;67.15
73509;SHT30;61750;55.036;73.312;2022-12-15T10:00:12;-19.00;67.12
73509;SHT30;61750;55.036;73.312;2022-12-15T10:06:02;-19.21;67.33
73509;SHT30;61750;55.036;73.312;2022-12-15T10:08:32;-19.28;67.63
73509;SHT30;61750;55.036;73.312;2022-12-15T10:11:03;-19.28;67.88
73509;SHT30;61750;55.036;73.312;2022-12-15T10:13:32;-19.38;67.93
73509;SHT30;61750;55.036;73.312;2022-12-15T10:16:15;-19.39;68.42
73509;SHT30;61750;55.036;73.312;2022-12-15T10:21:15;-19.43;68.73
73509;SHT30;61750;55.036;73.312;2022-12-15T10:23:46;-19.55;68.56
73509;SHT30;61750;55.036;73.312;2022-12-15T10:26:20;-19.72;68.63
73509;SHT30;61750;55.036;73.312;2022-12-15T10:29:01;-19.80;69.19
73509;SHT30;61750;55.036;73.312;2022-12-15T10:31:36;-19.86;69.50
73509;SHT30;61750;55.036;73.312;2022-12-15T10:34:26;-19.89;69.83
73509;SHT30;61750;55.036;73.312;2022-12-15T10:36:55;-19.91;69.90
73509;SHT30;61750;55.036;73.312;2022-12-15T10:39:39;-19.94;70.10
73509;SHT30;61750;55.036;73.312;2022-12-15T10:42:09;-20.01;69.97
73509;SHT30;61750;55.036;73.312;2022-12-15T10:44:49;-20.00;70.13
73509;SHT30;61750;55.036;73.312;2022-12-15T10:47:30;-20.06;69.97
73509;SHT30;61750;55.036;73.312;2022-12-15T10:50:21;-20.09;70.07
73509;SHT30;61750;55.036;73.312;2022-12-15T10:53:29;-20.16;70.12
73509;SHT30;61750;55.036;73.312;2022-12-15T10:56:01;-20.20;70.50
73509;SHT30;61750;55.036;73.312;2022-12-15T10:58:27;-20.24;70.53
73509;SHT30;61750;55.036;73.312;2022-12-15T11:01:13;-20.27;70.68
73509;SHT30;61750;55.036;73.312;2022-12-15T11:03:49;-20.31;70.75
73509;SHT30;61750;55.036;73.312;2022-12-15T11:06:31;-20.35;70.97
73509;SHT30;61750;55.036;73.312;2022-12-15T11:12:09;-20.41;71.19
73509;SHT30;61750;55.036;73.312;2022-12-15T11:14:59;-20.47;71.44
73509;SHT30;61750;55.036;73.312;2022-12-15T11:17:35;-20.48;71.58
73509;SHT30;61750;55.036;73.312;2022-12-15T11:20:03;-20.49;71.60
73509;SHT30;61750;55.036;73.312;2022-12-15T11:25:30;-20.58;71.84
73509;SHT30;61750;55.036;73.312;2022-12-15T11:28:07;-20.58;71.96
73509;SHT30;61750;55.036;73.312;2022-12-15T11:30:58;-20.69;71.95
73509;SHT30;61750;55.036;73.312;2022-12-15T11:33:25;-20.73;72.23
73509;SHT30;61750;55.036;73.312;2022-12-15T11:35:57;-20.68;72.58
73509;SHT30;61750;55.036;73.312;2022-12-15T11:38:43;-20.78;72.19
73509;SHT30;61750;55.036;73.312;2022-12-15T11:46:11;-20.90;72.65
73509;SHT30;61750;55.036;73.312;2022-12-15T12:02:29;-21.04;73.28
73509;SHT30;61750;55.036;73.312;2022-12-15T12:07:49;-21.06;73.50
73509;SHT30;61750;55.036;73.312;2022-12-15T12:13:26;-21.06;73.50
73509;SHT30;61750;55.036;73.312;2022-12-15T12:16:14;-21.10;73.43
73509;SHT30;61750;55.036;73.312;2022-12-15T12:19:01;-21.09;73.61
73509;SHT30;61750;55.036;73.312;2022-12-15T12:21:36;-21.12;73.70
73509;SHT30;61750;55.036;73.312;2022-12-15T12:26:38;-21.12;73.67
73509;SHT30;61750;55.036;73.312;2022-12-15T12:29:28;-21.20;73.58
73509;SHT30;61750;55.036;73.312;2022-12-15T12:32:10;-21.16;73.84
73509;SHT30;61750;55.036;73.312;2022-12-15T12:35:01;-21.12;74.11
73509;SHT30;61750;55.036;73.312;2022-12-15T12:37:36;-21.16;73.90
73509;SHT30;61750;55.036;73.312;2022-12-15T12:40:06;-21.14;73.93
73509;SHT30;61750;55.036;73.312;2022-12-15T12:42:48;-21.13;74.11
73509;SHT30;61750;55.036;73.312;2022-12-15T12:49:48;-21.12;74.05
73509;SHT30;61750;55.036;73.312;2022-12-15T12:52:23;-21.02;74.27
73509;SHT30;61750;55.036;73.312;2022-12-15T12:55:01;-20.99;74.14
73509;SHT30;61750;55.036;73.312;2022-12-15T13:00:14;-20.98;73.99
73509;SHT30;61750;55.036;73.312;2022-12-15T13:05:48;-20.89;73.89
73509;SHT30;61750;55.036;73.312;2022-12-15T13:08:16;-20.92;73.62
73509;SHT30;61750;55.036;73.312;2022-12-15T13:10:48;-20.90;73.61
73509;SHT30;61750;55.036;73.312;2022-12-15T13:15:48;-20.99;73.67
73509;SHT30;61750;55.036;73.312;2022-12-15T13:18:15;-20.96;73.68
73509;SHT30;61750;55.036;73.312;2022-12-15T13:20:48;-20.99;73.61
73509;SHT30;61750;55.036;73.312;2022-12-15T13:25:44;-20.93;73.71
73509;SHT30;61750;55.036;73.312;2022-12-15T13:28:23;-20.98;73.70
73509;SHT30;61750;55.036;73.312;2022-12-15T13:33:34;-21.02;73.63
73509;SHT30;61750;55.036;73.312;2022-12-15T13:36:09;-21.04;73.79
73509;SHT30;61750;55.036;73.312;2022-12-15T13:38:52;-21.07;73.64
73509;SHT30;61750;55.036;73.312;2022-12-15T13:41:23;-21.14;73.61
73509;SHT30;61750;55.036;73.312;2022-12-15T13:43:51;-21.14;73.64
73509;SHT30;61750;55.036;73.312;2022-12-15T13:46:22;-21.16;73.78
73509;SHT30;61750;55.036;73.312;2022-12-15T13:48:53;-21.12;73.82
73509;SHT30;61750;55.036;73.312;2022-12-15T13:56:38;-21.16;73.62
73509;SHT30;61750;55.036;73.312;2022-12-15T13:59:25;-21.22;73.69
73509;SHT30;61750;55.036;73.312;2022-12-15T14:01:51;-21.20;73.81
73509;SHT30;61750;55.036;73.312;2022-12-15T14:04:19;-21.17;74.00
73509;SHT30;61750;55.036;73.312;2022-12-15T14:06:47;-21.12;74.09
73509;SHT30;61750;55.036;73.312;2022-12-15T14:09:14;-21.06;74.07
73509;SHT30;61750;55.036;73.312;2022-12-15T14:11:42;-21.13;73.68
73509;SHT30;61750;55.036;73.312;2022-12-15T14:14:19;-21.10;73.85
73509;SHT30;61750;55.036;73.312;2022-12-15T14:16:59;-21.09;74.13
73509;SHT30;61750;55.036;73.312;2022-12-15T14:19:25;-21.12;74.09
73509;SHT30;61750;55.036;73.312;2022-12-15T14:22:01;-21.14;74.01
73509;SHT30;61750;55.036;73.312;2022-12-15T14:24:32;-21.22;73.96
73509;SHT30;61750;55.036;73.312;2022-12-15T14:27:19;-21.16;74.38
73509;SHT30;61750;55.036;73.312;2022-12-15T14:30:36;-21.19;74.33
73509;SHT30;61750;55.036;73.312;2022-12-15T14:32:38;-21.17;74.51
73509;SHT30;61750;55.036;73.312;2022-12-15T14:35:05;-21.17;74.53
73509;SHT30;61750;55.036;73.312;2022-12-15T14:37:31;-21.17;74.69
73509;SHT30;61750;55.036;73.312;2022-12-15T14:40:12;-21.16;74.70
73509;SHT30;61750;55.036;73.312;2022-12-15T14:42:39;-21.23;74.54
73509;SHT30;61750;55.036;73.312;2022-12-15T14:45:12;-21.20;74.76
73509;SHT30;61750;55.036;73.312;2022-12-15T14:47:56;-21.24;74.70
73509;SHT30;61750;55.036;73.312;2022-12-15T14:50:48;-21.24;75.02
73509;SHT30;61750;55.036;73.312;2022-12-15T14:53:14;-21.24;75.04
73509;SHT30;61750;55.036;73.312;2022-12-15T14:55:41;-21.22;75.16
73509;SHT30;61750;55.036;73.312;2022-12-15T14:58:26;-21.23;75.17
73509;SHT30;61750;55.036;73.312;2022-12-15T15:01:19;-21.24;75.16
73509;SHT30;61750;55.036;73.312;2022-12-15T15:03:46;-21.28;75.14
73509;SHT30;61750;55.036;73.312;2022-12-15T15:06:29;-21.26;75.45
73509;SHT30;61750;55.036;73.312;2022-12-15T15:08:56;-21.30;75.37
73509;SHT30;61750;55.036;73.312;2022-12-15T15:11:38;-21.30;75.59
73509;SHT30;61750;55.036;73.312;2022-12-15T15:14:11;-21.20;75.70
73509;SHT30;61750;55.036;73.312;2022-12-15T15:16:40;-21.19;75.61
73509;SHT30;61750;55.036;73.312;2022-12-15T15:19:15;-21.23;75.54
73509;SHT30;61750;55.036;73.312;2022-12-15T15:21:44;-21.20;75.45
73509;SHT30;61750;55.036;73.312;2022-12-15T15:26:36;-21.24;75.54
73509;SHT30;61750;55.036;73.312;2022-12-15T15:29:03;-21.23;75.70
73509;SHT30;61750;55.036;73.312;2022-12-15T15:31:33;-21.23;75.65
73509;SHT30;61750;55.036;73.312;2022-12-15T15:34:10;-21.14;76.06
73509;SHT30;61750;55.036;73.312;2022-12-15T15:36:37;-21.17;75.70
73509;SHT30;61750;55.036;73.312;2022-12-15T15:39:08;-21.20;75.68
73509;SHT30;61750;55.036;73.312;2022-12-15T15:41:45;-21.14;75.99
73509;SHT30;61750;55.036;73.312;2022-12-15T15:44:12;-21.19;76.01
73509;SHT30;61750;55.036;73.312;2022-12-15T15:46:44;-21.13;76.19
73509;SHT30;61750;55.036;73.312;2022-12-15T15:49:11;-21.19;75.99
73509;SHT30;61750;55.036;73.312;2022-12-15T15:51:38;-21.12;76.28
73509;SHT30;61750;55.036;73.312;2022-12-15T15:54:06;-21.17;75.98
73509;SHT30;61750;55.036;73.312;2022-12-15T15:56:35;-21.12;76.29
73509;SHT30;61750;55.036;73.312;2022-12-15T15:59:12;-21.17;75.93
73509;SHT30;61750;55.036;73.312;2022-12-15T16:01:39;-21.19;76.01
73509;SHT30;61750;55.036;73.312;2022-12-15T16:04:05;-21.19;76.21
73509;SHT30;61750;55.036;73.312;2022-12-15T16:06:31;-21.19;76.13
73509;SHT30;61750;55.036;73.312;2022-12-15T16:08:57;-21.27;75.99
73509;SHT30;61750;55.036;73.312;2022-12-15T16:11:34;-21.24;76.22
73509;SHT30;61750;55.036;73.312;2022-12-15T16:14:09;-21.14;76.63
73509;SHT30;61750;55.036;73.312;2022-12-15T16:16:45;-21.13;76.28
73509;SHT30;61750;55.036;73.312;2022-12-15T16:19:11;-21.06;76.28
73509;SHT30;61750;55.036;73.312;2022-12-15T16:21:46;-21.03;76.13
73509;SHT30;61750;55.036;73.312;2022-12-15T16:24:16;-21.02;75.82
73509;SHT30;61750;55.036;73.312;2022-12-15T16:26:44;-20.99;75.81
73509;SHT30;61750;55.036;73.312;2022-12-15T16:29:13;-20.98;75.61
73509;SHT30;61750;55.036;73.312;2022-12-15T16:31:41;-20.92;75.72
73509;SHT30;61750;55.036;73.312;2022-12-15T16:34:10;-20.88;75.40
73509;SHT30;61750;55.036;73.312;2022-12-15T16:36:41;-20.86;75.19
73509;SHT30;61750;55.036;73.312;2022-12-15T16:39:17;-20.85;75.12
73509;SHT30;61750;55.036;73.312;2022-12-15T16:41:45;-20.79;74.92
73509;SHT30;61750;55.036;73.312;2022-12-15T16:44:16;-20.85;74.90
73509;SHT30;61750;55.036;73.312;2022-12-15T16:46:42;-20.76;75.27
73509;SHT30;61750;55.036;73.312;2022-12-15T16:49:09;-20.72;75.12
73509;SHT30;61750;55.036;73.312;2022-12-15T16:51:38;-20.78;74.87
73509;SHT30;61750;55.036;73.312;2022-12-15T16:54:05;-20.80;74.91
73509;SHT30;61750;55.036;73.312;2022-12-15T16:56:31;-20.72;75.43
73509;SHT30;61750;55.036;73.312;2022-12-15T16:59:03;-20.72;75.38
73509;SHT30;61750;55.036;73.312;2022-12-15T17:01:32;-20.72;75.36
73509;SHT30;61750;55.036;73.312;2022-12-15T17:04:08;-20.72;75.36
73509;SHT30;61750;55.036;73.312;2022-12-15T17:06:34;-20.73;75.46
73509;SHT30;61750;55.036;73.312;2022-12-15T17:09:15;-20.69;75.84
73509;SHT30;61750;55.036;73.312;2022-12-15T17:11:42;-20.66;75.98
73509;SHT30;61750;55.036;73.312;2022-12-15T17:14:09;-20.65;76.03
73509;SHT30;61750;55.036;73.312;2022-12-15T17:16:36;-20.69;75.87
73509;SHT30;61750;55.036;73.312;2022-12-15T17:19:02;-20.76;75.91
73509;SHT30;61750;55.036;73.312;2022-12-15T17:21:28;-20.75;76.31
73509;SHT30;61750;55.036;73.312;2022-12-15T17:23:55;-20.68;76.82
73509;SHT30;61750;55.036;73.312;2022-12-15T17:26:29;-20.75;76.44
73509;SHT30;61750;55.036;73.312;2022-12-15T17:28:59;-20.76;76.55
73509;SHT30;61750;55.036;73.312;2022-12-15T17:31:26;-20.72;76.89
73509;SHT30;61750;55.036;73.312;2022-12-15T17:33:52;-20.76;76.75
73509;SHT30;61750;55.036;73.312;2022-12-15T17:36:26;-20.76;76.91
73509;SHT30;61750;55.036;73.312;2022-12-15T17:38:58;-20.76;77.14
73509;SHT30;61750;55.036;73.312;2022-12-15T17:41:25;-20.75;77.31
73509;SHT30;61750;55.036;73.312;2022-12-15T17:43:56;-20.78;77.29
73509;SHT30;61750;55.036;73.312;2022-12-15T17:46:22;-20.78;77.31
73509;SHT30;61750;55.036;73.312;2022-12-15T17:48:48;-20.78;77.44